Terminal Aerodrome Forecast
Issued by NWS Charleston, WV

Current Version | Previous Version | Text Only | Print | Product List | Glossary Off
Versions: 1 2 3 4 5 6 7 8 9 10 11 12 13 14 15 16 17 18 19 20 21 22 23 24 25

000
FTUS41 KRLX 232300 AAA
TAFEKN
TAF AMD
KEKN 232356Z 2400/2424 32010G16KT P6SM FEW050
     FM240200 32004KT P6SM SKC
     FM240300 00000KT P6SM SKC
     FM240900 00000KT P6SM FEW130
     FM241700 VRB03KT P6SM SCT250=

USA.gov is the U.S. government's official web portal to all federal, state and local government web resources and services.